Time;durP1;ratioP1;P1;durP2;ratioP2;P2;SDS_P1;SDS_P2;PMS_P1;PMS_P2;Temp;Humidity;BMP_temperature;BMP_pressure;BME280_temperature;BME280_humidity;BME280_pressure;Samples;Min_cycle;Max_cycle;Signal;HPM_P1;HPM_P2
2023/07/14 00:00:23;;;;;;;1.70;1.50;;;17.80;99.90;;;;;;6178422;23;20055;-85
2023/07/14 00:02:52;;;;;;;8.85;2.20;;;17.80;99.90;;;;;;6152460;23;20005;-86
2023/07/14 00:05:33;;;;;;;3.20;1.73;;;17.80;99.90;;;;;;6178558;23;20009;-85
2023/07/14 00:07:59;;;;;;;3.47;1.92;;;17.70;99.90;;;;;;6178529;23;20009;-85
2023/07/14 00:10:30;;;;;;;6.10;2.72;;;17.70;99.90;;;;;;6179560;23;20450;-85
2023/07/14 00:13:00;;;;;;;6.78;1.90;;;17.70;99.90;;;;;;6178594;23;20300;-85
2023/07/14 00:15:26;;;;;;;3.20;1.85;;;17.60;99.90;;;;;;6176083;23;20001;-85
2023/07/14 00:18:09;;;;;;;5.95;2.65;;;17.60;99.90;;;;;;6176496;23;20017;-82
2023/07/14 00:20:35;;;;;;;4.20;2.33;;;17.60;99.90;;;;;;6178363;23;20005;-85
2023/07/14 00:23:00;;;;;;;4.20;2.00;;;17.60;99.90;;;;;;6178858;23;20449;-85
2023/07/14 00:25:26;;;;;;;4.15;2.20;;;17.60;99.90;;;;;;6177975;23;20430;-84
2023/07/14 00:27:56;;;;;;;3.15;2.47;;;17.60;99.90;;;;;;6177798;23;20005;-82
2023/07/14 00:30:24;;;;;;;3.60;2.10;;;17.60;99.90;;;;;;6177716;23;20008;-84
2023/07/14 00:32:52;;;;;;;2.85;1.65;;;17.50;99.90;;;;;;6178760;23;20020;-85
2023/07/14 00:35:27;;;;;;;6.25;2.92;;;17.50;99.90;;;;;;6178515;23;20028;-85
2023/07/14 00:37:54;;;;;;;13.95;2.35;;;17.50;99.90;;;;;;6177965;23;20016;-84
2023/07/14 00:40:49;;;;;;;3.65;1.58;;;17.50;99.90;;;;;;6179304;23;20001;-84
2023/07/14 00:43:21;;;;;;;2.30;1.45;;;17.50;99.90;;;;;;6146450;23;20040;-85
2023/07/14 00:45:49;;;;;;;5.18;2.00;;;17.40;99.90;;;;;;6178699;23;20001;-85
2023/07/14 00:48:18;;;;;;;3.97;2.47;;;17.40;99.90;;;;;;6177323;23;20009;-85
2023/07/14 00:50:51;;;;;;;2.95;2.00;;;17.30;99.90;;;;;;6178314;23;20012;-85
2023/07/14 00:53:34;;;;;;;6.32;2.35;;;17.20;99.90;;;;;;6178224;23;20005;-86
2023/07/14 00:56:02;;;;;;;5.43;2.78;;;17.10;99.90;;;;;;6177462;23;20331;-85
2023/07/14 00:58:30;;;;;;;3.53;1.80;;;17.00;99.90;;;;;;6177634;23;20044;-86
2023/07/14 01:01:10;;;;;;;2.38;1.92;;;16.90;99.90;;;;;;6177535;23;20011;-85
2023/07/14 01:03:41;;;;;;;2.67;1.58;;;16.80;99.90;;;;;;6177640;23;20316;-86
2023/07/14 01:06:19;;;;;;;4.53;1.92;;;16.70;99.90;;;;;;6177897;23;20026;-82
2023/07/14 01:08:54;;;;;;;3.95;1.98;;;16.60;99.90;;;;;;6177613;23;20016;-85
2023/07/14 01:11:23;;;;;;;4.13;2.53;;;16.60;99.90;;;;;;6178467;23;20001;-84
2023/07/14 01:13:49;;;;;;;3.15;1.80;;;16.40;99.90;;;;;;6176954;23;19997;-86
2023/07/14 01:16:15;;;;;;;4.18;2.30;;;16.40;99.90;;;;;;6177253;23;20005;-85
2023/07/14 01:18:43;;;;;;;2.17;1.98;;;16.30;99.90;;;;;;6178163;23;20040;-86
2023/07/14 01:21:09;;;;;;;5.55;2.58;;;16.20;99.90;;;;;;6177509;23;20008;-81
2023/07/14 01:23:50;;;;;;;3.63;2.10;;;16.10;99.90;;;;;;6177859;23;20005;-84
2023/07/14 01:27:12;;;;;;;5.82;2.13;;;16.10;99.90;;;;;;6177366;23;20001;-85
2023/07/14 01:29:38;;;;;;;6.25;2.13;;;16.00;99.90;;;;;;6028382;23;20008;-83
2023/07/14 01:32:16;;;;;;;3.20;1.83;;;15.90;99.90;;;;;;6029033;23;20343;-84
2023/07/14 01:34:44;;;;;;;4.20;1.90;;;15.90;99.90;;;;;;6109716;23;20243;-82
2023/07/14 01:37:10;;;;;;;6.68;2.20;;;15.80;99.90;;;;;;6176943;23;20506;-85
2023/07/14 01:39:36;;;;;;;3.05;2.20;;;15.80;99.90;;;;;;6178038;23;20024;-85
2023/07/14 01:42:01;;;;;;;3.85;2.28;;;15.70;99.90;;;;;;6178110;23;20800;-85
2023/07/14 01:44:27;;;;;;;8.48;2.55;;;15.60;99.90;;;;;;6177717;23;20175;-85
2023/07/14 01:46:55;;;;;;;3.25;1.92;;;15.60;99.90;;;;;;6176541;23;20001;-84
2023/07/14 01:50:00;;;;;;;3.67;2.10;;;15.50;99.90;;;;;;6177621;23;20439;-86
2023/07/14 01:52:30;;;;;;;7.50;2.20;;;15.50;99.90;;;;;;6095724;23;20067;-87
2023/07/14 01:55:05;;;;;;;8.25;2.45;;;15.40;99.90;;;;;;6177783;23;20040;-85
2023/07/14 01:57:34;;;;;;;9.20;2.42;;;15.30;99.90;;;;;;6177467;23;20013;-84
2023/07/14 02:00:09;;;;;;;4.95;2.35;;;15.30;99.90;;;;;;6177977;23;20101;-87
2023/07/14 02:02:38;;;;;;;3.58;2.17;;;15.20;99.90;;;;;;6176790;23;20002;-85
2023/07/14 02:05:34;;;;;;;4.75;2.15;;;15.10;99.90;;;;;;6177431;23;20005;-86
2023/07/14 02:08:05;;;;;;;3.10;2.10;;;15.10;99.90;;;;;;6177304;23;20013;-86
2023/07/14 02:10:32;;;;;;;5.43;2.35;;;15.00;99.90;;;;;;6177372;23;20048;-85
2023/07/14 02:12:58;;;;;;;2.55;1.80;;;15.00;99.90;;;;;;6176828;23;20009;-86
2023/07/14 02:15:31;;;;;;;2.20;1.83;;;15.00;99.90;;;;;;6178033;23;20024;-84
2023/07/14 02:17:58;;;;;;;5.53;2.60;;;15.00;99.90;;;;;;6177755;23;20013;-86
2023/07/14 02:20:29;;;;;;;2.35;1.90;;;14.90;99.90;;;;;;6177785;23;20327;-83
2023/07/14 02:22:55;;;;;;;4.28;2.20;;;14.90;99.90;;;;;;6177369;23;20008;-84
2023/07/14 02:25:24;;;;;;;3.45;2.10;;;14.90;99.90;;;;;;6177344;23;20008;-83
2023/07/14 02:27:49;;;;;;;4.32;2.13;;;14.90;99.90;;;;;;6177214;23;20452;-86
2023/07/14 02:30:18;;;;;;;4.07;2.08;;;14.90;99.90;;;;;;6177888;23;20071;-85
2023/07/14 02:32:50;;;;;;;6.57;2.40;;;14.80;99.90;;;;;;6177689;23;20016;-85
2023/07/14 02:35:23;;;;;;;4.05;2.00;;;14.80;99.90;;;;;;6177419;23;20031;-85
2023/07/14 02:38:13;;;;;;;3.60;2.33;;;14.70;99.90;;;;;;6177604;23;20017;-85
2023/07/14 02:40:54;;;;;;;5.50;3.25;;;14.70;99.90;;;;;;6176965;23;20075;-85
2023/07/14 02:43:22;;;;;;;5.40;2.47;;;14.70;99.90;;;;;;6178533;23;20031;-85
2023/07/14 02:46:10;;;;;;;3.45;1.95;;;14.60;99.90;;;;;;6176565;23;19997;-83
2023/07/14 02:48:49;;;;;;;4.68;2.30;;;14.60;99.90;;;;;;6157397;23;20007;-85
2023/07/14 02:51:15;;;;;;;5.32;2.50;;;14.60;99.90;;;;;;6177309;23;20005;-86
2023/07/14 02:53:41;;;;;;;3.58;2.33;;;14.60;99.90;;;;;;6178116;23;20004;-85
2023/07/14 02:56:07;;;;;;;6.55;2.70;;;14.60;99.90;;;;;;6177590;23;20080;-84
2023/07/14 02:58:34;;;;;;;4.18;2.28;;;14.60;99.90;;;;;;6176261;23;20386;-84
2023/07/14 03:01:01;;;;;;;7.30;2.85;;;14.70;99.90;;;;;;6177993;23;20064;-85
2023/07/14 03:03:27;;;;;;;4.75;2.40;;;14.60;99.90;;;;;;6176928;23;20144;-85
2023/07/14 03:05:54;;;;;;;3.17;2.17;;;14.60;99.90;;;;;;6176788;23;20147;-82
2023/07/14 03:08:20;;;;;;;5.32;2.83;;;14.60;99.90;;;;;;6177938;23;20006;-85
2023/07/14 03:10:56;;;;;;;4.40;2.38;;;14.50;99.90;;;;;;6176693;23;20432;-86
2023/07/14 03:13:21;;;;;;;8.48;2.92;;;14.50;99.90;;;;;;6176630;23;20444;-84
2023/07/14 03:15:50;;;;;;;4.85;2.42;;;14.50;99.90;;;;;;6176726;23;19997;-85
2023/07/14 03:18:18;;;;;;;5.60;2.05;;;14.50;99.90;;;;;;6176719;23;20439;-85
2023/07/14 03:20:44;;;;;;;3.20;2.22;;;14.50;99.90;;;;;;6176865;23;20001;-85
2023/07/14 03:23:10;;;;;;;9.43;2.20;;;14.50;99.90;;;;;;6176848;23;20450;-87
2023/07/14 03:25:36;;;;;;;3.33;2.00;;;14.50;99.90;;;;;;6178583;23;20024;-86
2023/07/14 03:28:03;;;;;;;5.78;2.33;;;14.40;99.90;;;;;;6178494;23;20450;-85
2023/07/14 03:30:29;;;;;;;7.18;2.42;;;14.40;99.90;;;;;;6179062;23;20076;-85
2023/07/14 03:32:55;;;;;;;9.18;2.47;;;14.40;99.90;;;;;;6177619;23;20005;-85
2023/07/14 03:35:20;;;;;;;2.67;1.77;;;14.40;99.90;;;;;;6179422;23;20052;-86
2023/07/14 03:37:46;;;;;;;3.08;2.25;;;14.40;99.90;;;;;;6178878;23;20017;-86
2023/07/14 03:40:12;;;;;;;5.85;1.85;;;14.40;99.90;;;;;;6179190;23;20005;-84
2023/07/14 03:42:39;;;;;;;4.22;2.33;;;14.30;99.90;;;;;;6178826;23;20488;-84
2023/07/14 03:45:05;;;;;;;3.30;2.28;;;14.30;99.90;;;;;;6177720;23;20005;-85
2023/07/14 03:47:31;;;;;;;2.85;2.30;;;14.30;99.90;;;;;;6178960;23;20001;-84
2023/07/14 03:49:57;;;;;;;4.55;2.22;;;14.20;99.90;;;;;;6178847;23;20003;-84
2023/07/14 03:52:23;;;;;;;8.13;2.58;;;14.20;99.90;;;;;;6178805;23;20012;-82
2023/07/14 03:54:49;;;;;;;3.95;2.10;;;14.20;99.90;;;;;;6177568;23;20053;-84
2023/07/14 03:57:14;;;;;;;3.47;2.05;;;14.10;99.90;;;;;;6177606;23;20451;-86
2023/07/14 03:59:40;;;;;;;6.03;2.10;;;14.20;99.90;;;;;;6177208;23;19997;-85
2023/07/14 04:02:05;;;;;;;6.40;2.30;;;14.20;99.90;;;;;;6179128;23;20001;-85
2023/07/14 04:04:32;;;;;;;3.25;2.10;;;14.30;99.90;;;;;;6178507;23;20711;-85
2023/07/14 04:06:57;;;;;;;2.05;1.67;;;14.30;99.90;;;;;;6177934;23;20020;-86
2023/07/14 04:09:23;;;;;;;3.33;1.98;;;14.30;99.90;;;;;;6178788;23;20005;-83
2023/07/14 04:11:49;;;;;;;3.25;2.10;;;14.30;99.90;;;;;;6177144;23;20001;-86
2023/07/14 04:14:15;;;;;;;3.05;2.15;;;14.30;99.90;;;;;;6178711;23;20028;-85
2023/07/14 04:16:41;;;;;;;5.57;2.53;;;14.30;99.90;;;;;;6176563;23;20009;-84
2023/07/14 04:19:06;;;;;;;4.53;2.35;;;14.30;99.90;;;;;;6179051;23;19993;-86
2023/07/14 04:21:33;;;;;;;3.55;2.08;;;14.30;99.90;;;;;;6178170;23;20001;-83
2023/07/14 04:23:58;;;;;;;3.72;2.22;;;14.40;99.90;;;;;;6177385;23;20424;-84
2023/07/14 04:26:26;;;;;;;4.65;2.58;;;14.40;99.90;;;;;;6178294;23;20028;-84
2023/07/14 04:28:51;;;;;;;3.50;2.00;;;14.50;99.90;;;;;;6178392;23;20052;-85
2023/07/14 04:31:17;;;;;;;3.10;2.03;;;14.50;99.90;;;;;;6177925;23;20494;-83
2023/07/14 04:33:44;;;;;;;4.70;2.10;;;14.60;99.90;;;;;;6177849;23;20009;-85
2023/07/14 04:36:13;;;;;;;3.47;2.15;;;14.60;99.90;;;;;;6177471;23;20054;-85
2023/07/14 04:38:42;;;;;;;2.88;1.90;;;14.70;99.90;;;;;;6177405;23;20323;-84
2023/07/14 04:41:08;;;;;;;5.97;2.67;;;14.70;99.90;;;;;;6178574;23;20135;-85
2023/07/14 04:43:34;;;;;;;4.53;2.20;;;14.70;99.90;;;;;;6150906;23;19997;-84
2023/07/14 04:45:59;;;;;;;3.45;2.28;;;14.80;99.90;;;;;;6178791;23;20011;-85
2023/07/14 04:48:25;;;;;;;3.60;2.38;;;14.80;99.90;;;;;;6176982;23;20009;-84
2023/07/14 04:50:51;;;;;;;4.47;2.50;;;14.90;99.90;;;;;;6178347;23;20069;-85
2023/07/14 04:53:19;;;;;;;11.05;2.97;;;15.00;99.90;;;;;;6177534;23;20084;-85
2023/07/14 04:55:46;;;;;;;6.97;2.80;;;15.10;99.90;;;;;;6178170;23;20011;-83
2023/07/14 04:58:14;;;;;;;11.65;3.10;;;15.30;99.90;;;;;;6177620;23;20040;-83
2023/07/14 05:00:44;;;;;;;4.95;2.63;;;15.40;99.90;;;;;;6176683;23;20012;-83
2023/07/14 05:03:09;;;;;;;7.10;2.95;;;15.50;99.90;;;;;;6177951;23;20028;-84
2023/07/14 05:05:35;;;;;;;9.45;3.10;;;15.60;99.90;;;;;;6178443;23;20107;-84
2023/07/14 05:08:01;;;;;;;13.40;4.45;;;15.70;99.90;;;;;;6178792;23;20020;-85
2023/07/14 05:10:31;;;;;;;6.80;3.20;;;15.80;99.90;;;;;;6177766;23;19997;-81
2023/07/14 05:12:57;;;;;;;4.88;2.55;;;15.90;99.90;;;;;;6177886;23;20421;-86
2023/07/14 05:15:24;;;;;;;5.50;3.08;;;16.10;99.90;;;;;;6178582;23;20001;-84
2023/07/14 05:17:51;;;;;;;7.40;2.50;;;16.10;99.90;;;;;;6177878;23;20048;-85
2023/07/14 05:20:18;;;;;;;4.80;2.92;;;16.20;99.90;;;;;;6178117;23;20007;-86
2023/07/14 05:22:46;;;;;;;5.38;3.28;;;16.30;99.90;;;;;;6177278;23;20293;-85
2023/07/14 05:25:14;;;;;;;8.45;3.05;;;16.40;99.90;;;;;;6178451;23;20375;-86
2023/07/14 05:27:43;;;;;;;7.15;2.58;;;16.50;99.90;;;;;;6177892;23;20005;-85
2023/07/14 05:30:10;;;;;;;5.90;2.70;;;16.60;99.90;;;;;;6178721;23;20067;-84
2023/07/14 05:32:36;;;;;;;4.72;2.88;;;16.60;99.90;;;;;;6177104;23;19997;-85
2023/07/14 05:35:02;;;;;;;7.63;3.05;;;16.70;99.90;;;;;;6177807;23;20013;-84
2023/07/14 05:37:28;;;;;;;6.43;3.00;;;16.80;99.90;;;;;;6178273;23;20087;-84
2023/07/14 05:39:54;;;;;;;3.70;2.38;;;16.80;99.90;;;;;;6177893;23;20005;-82
2023/07/14 05:42:20;;;;;;;4.68;2.42;;;16.90;99.90;;;;;;6178767;23;20005;-84
2023/07/14 05:44:45;;;;;;;6.45;2.80;;;17.00;99.90;;;;;;6178094;23;20005;-85
2023/07/14 05:47:13;;;;;;;4.43;2.33;;;17.00;99.90;;;;;;6177394;23;20447;-85
2023/07/14 05:49:38;;;;;;;10.77;2.85;;;17.10;99.90;;;;;;6177801;23;20051;-85
2023/07/14 05:52:04;;;;;;;9.98;2.83;;;17.10;99.90;;;;;;6178498;23;20001;-85
2023/07/14 05:54:30;;;;;;;5.95;2.95;;;17.20;99.90;;;;;;6178095;23;20005;-85
2023/07/14 05:56:56;;;;;;;3.80;2.42;;;17.20;99.90;;;;;;6177505;23;20096;-85
2023/07/14 05:59:22;;;;;;;5.30;2.33;;;17.30;99.90;;;;;;6177201;23;20008;-86
2023/07/14 06:01:48;;;;;;;4.10;2.47;;;17.40;99.90;;;;;;6178329;23;20020;-85
2023/07/14 06:04:15;;;;;;;7.55;2.53;;;17.40;99.90;;;;;;6178327;23;20020;-86
2023/07/14 06:06:42;;;;;;;8.20;2.80;;;17.50;99.90;;;;;;6178436;23;20336;-84
2023/07/14 06:09:09;;;;;;;8.88;3.17;;;17.50;99.90;;;;;;6178051;23;20424;-85
2023/07/14 06:11:35;;;;;;;8.32;2.63;;;17.60;99.90;;;;;;6176728;23;20001;-86
2023/07/14 06:14:01;;;;;;;6.18;2.70;;;17.60;99.90;;;;;;6178001;23;20001;-86
2023/07/14 06:16:26;;;;;;;4.25;2.70;;;17.70;99.90;;;;;;6178352;23;20450;-85
2023/07/14 06:18:52;;;;;;;3.20;2.30;;;17.80;99.90;;;;;;6178006;23;20028;-82
2023/07/14 06:21:18;;;;;;;4.03;2.53;;;17.80;99.90;;;;;;6178173;23;20001;-85
2023/07/14 06:23:44;;;;;;;7.32;2.83;;;17.80;99.90;;;;;;6176752;23;20008;-85
2023/07/14 06:26:10;;;;;;;7.88;3.05;;;17.90;99.90;;;;;;6178413;23;20080;-83
2023/07/14 06:28:36;;;;;;;5.30;2.70;;;17.90;99.90;;;;;;6177952;23;20001;-85
2023/07/14 06:31:04;;;;;;;5.85;2.13;;;18.00;99.90;;;;;;6178323;23;20071;-84
2023/07/14 06:33:31;;;;;;;7.05;2.85;;;18.00;99.90;;;;;;6178113;23;20084;-84
2023/07/14 06:35:57;;;;;;;3.95;2.00;;;18.00;99.90;;;;;;6176490;23;20305;-84
2023/07/14 06:38:23;;;;;;;4.38;2.55;;;18.00;99.90;;;;;;6177805;23;20458;-85
2023/07/14 06:41:03;;;;;;;5.60;2.30;;;18.00;99.90;;;;;;6178193;23;20017;-84
2023/07/14 06:43:32;;;;;;;5.60;2.38;;;18.10;99.90;;;;;;6177018;23;20088;-85
2023/07/14 06:45:58;;;;;;;3.85;2.08;;;18.10;99.90;;;;;;6176465;23;20479;-85
2023/07/14 06:48:25;;;;;;;6.57;2.30;;;18.20;99.90;;;;;;6177983;23;20012;-82
2023/07/14 06:50:51;;;;;;;5.22;2.20;;;18.20;99.90;;;;;;6177264;23;20064;-86
2023/07/14 06:53:17;;;;;;;6.20;2.20;;;18.30;99.90;;;;;;6177667;23;20005;-86
2023/07/14 06:55:43;;;;;;;6.93;2.28;;;18.30;99.90;;;;;;6177319;23;20425;-86
2023/07/14 06:58:09;;;;;;;12.27;2.30;;;18.30;99.90;;;;;;6178060;23;20033;-86
2023/07/14 07:00:35;;;;;;;2.63;2.28;;;18.30;99.90;;;;;;6180269;23;20024;-86
2023/07/14 07:03:03;;;;;;;7.13;2.65;;;18.40;99.90;;;;;;6180138;23;20008;-85
2023/07/14 07:05:29;;;;;;;6.10;2.55;;;18.50;99.90;;;;;;6179563;23;20383;-85
2023/07/14 07:07:55;;;;;;;4.28;2.38;;;18.50;99.90;;;;;;6179205;23;20092;-86
2023/07/14 07:10:21;;;;;;;7.78;2.13;;;18.50;99.90;;;;;;6178959;23;20420;-87
2023/07/14 07:12:46;;;;;;;5.45;2.47;;;18.50;99.90;;;;;;6179692;23;20323;-87
2023/07/14 07:15:12;;;;;;;5.95;2.03;;;18.60;99.90;;;;;;6179845;23;20015;-86
2023/07/14 07:17:38;;;;;;;6.78;2.25;;;18.60;99.90;;;;;;6179556;23;20016;-81
2023/07/14 07:20:09;;;;;;;9.55;1.73;;;18.70;99.90;;;;;;6179462;23;20001;-85
2023/07/14 07:22:36;;;;;;;3.03;1.58;;;18.70;99.90;;;;;;6179793;23;20069;-86
2023/07/14 07:25:02;;;;;;;5.82;1.98;;;18.70;99.90;;;;;;6179805;23;20005;-85
2023/07/14 07:27:27;;;;;;;5.30;1.42;;;18.70;99.90;;;;;;6179224;23;20015;-85
2023/07/14 07:29:53;;;;;;;5.68;1.90;;;18.80;99.90;;;;;;6179334;23;20008;-85
2023/07/14 07:32:18;;;;;;;3.53;1.63;;;18.80;99.90;;;;;;6179605;23;20007;-87
2023/07/14 07:34:44;;;;;;;3.58;1.92;;;18.80;99.90;;;;;;6178215;23;20327;-87
2023/07/14 07:37:10;;;;;;;4.65;1.55;;;18.80;99.90;;;;;;6179313;23;20017;-86
2023/07/14 07:39:36;;;;;;;4.35;1.83;;;19.00;99.90;;;;;;6179458;23;20489;-87
2023/07/14 07:42:03;;;;;;;3.17;1.50;;;19.00;99.90;;;;;;6179639;23;20007;-86
2023/07/14 07:44:29;;;;;;;3.85;2.00;;;19.00;99.90;;;;;;6179294;23;20443;-85
2023/07/14 07:46:56;;;;;;;3.28;1.80;;;19.00;99.90;;;;;;6177651;23;20517;-86
2023/07/14 07:49:21;;;;;;;7.03;2.15;;;19.00;99.90;;;;;;6179605;23;20013;-83
2023/07/14 07:51:47;;;;;;;3.20;1.60;;;19.00;99.90;;;;;;6178923;23;20006;-84
2023/07/14 07:54:13;;;;;;;6.10;1.95;;;19.10;99.90;;;;;;6179489;23;20555;-86
2023/07/14 07:56:43;;;;;;;3.95;1.63;;;19.10;99.90;;;;;;6179286;23;20001;-82
2023/07/14 07:59:15;;;;;;;4.13;2.00;;;19.10;99.90;;;;;;6177911;23;20490;-86
2023/07/14 08:01:42;;;;;;;4.53;1.98;;;19.20;99.90;;;;;;6179671;23;20005;-87
2023/07/14 08:04:08;;;;;;;4.97;2.03;;;19.20;99.90;;;;;;6179427;23;20075;-83
2023/07/14 08:06:36;;;;;;;4.85;2.22;;;19.30;99.90;;;;;;6179388;23;20096;-86
2023/07/14 08:09:05;;;;;;;7.05;3.30;;;19.40;99.90;;;;;;6177520;23;20088;-86
2023/07/14 08:11:31;;;;;;;5.25;2.20;;;19.40;99.90;;;;;;6178709;23;20002;-85
2023/07/14 08:13:59;;;;;;;6.68;1.83;;;19.60;99.90;;;;;;6179295;23;20127;-87
2023/07/14 08:16:25;;;;;;;8.23;2.03;;;19.70;99.90;;;;;;6178876;23;20077;-87
2023/07/14 08:18:52;;;;;;;3.40;2.15;;;19.70;99.90;;;;;;6179418;23;20056;-85
2023/07/14 08:21:18;;;;;;;5.68;1.98;;;19.80;99.90;;;;;;6178999;23;20005;-85
2023/07/14 08:23:44;;;;;;;6.57;2.40;;;19.80;99.90;;;;;;6152508;23;20108;-85
2023/07/14 08:26:10;;;;;;;5.35;2.67;;;19.80;99.90;;;;;;6179330;23;20031;-86
2023/07/14 08:28:36;;;;;;;2.65;1.38;;;19.80;99.90;;;;;;6179354;23;20032;-86
2023/07/14 08:31:08;;;;;;;5.65;2.28;;;19.90;99.90;;;;;;6179074;23;20001;-85
2023/07/14 08:33:34;;;;;;;4.47;2.13;;;19.90;99.90;;;;;;6179135;23;20028;-87
2023/07/14 08:36:01;;;;;;;7.03;2.25;;;20.00;99.90;;;;;;6178782;23;20001;-87
2023/07/14 08:38:32;;;;;;;2.78;2.28;;;20.10;99.90;;;;;;6178826;23;20422;-86
2023/07/14 08:41:23;;;;;;;5.63;2.47;;;20.30;99.90;;;;;;6177356;23;20317;-86
2023/07/14 08:44:30;;;;;;;6.93;3.03;;;20.50;99.90;;;;;;6178747;23;20016;-85
2023/07/14 08:47:23;;;;;;;4.18;2.45;;;20.60;99.90;;;;;;6178539;23;20001;-87
2023/07/14 08:49:55;;;;;;;6.70;2.17;;;20.70;99.90;;;;;;6178941;23;20016;-87
2023/07/14 08:52:29;;;;;;;9.10;2.50;;;20.80;99.90;;;;;;6178788;23;20488;-87
2023/07/14 08:55:07;;;;;;;4.53;2.58;;;20.90;99.90;;;;;;6177946;23;20360;-87
2023/07/14 08:57:42;;;;;;;5.40;2.28;;;21.00;99.90;;;;;;6178725;23;20009;-87
2023/07/14 09:00:12;;;;;;;5.05;2.15;;;21.00;99.90;;;;;;6177656;23;20089;-83
2023/07/14 09:03:00;;;;;;;3.55;2.20;;;21.10;99.90;;;;;;6178436;23;20458;-83
2023/07/14 09:05:27;;;;;;;5.68;2.42;;;21.10;99.90;;;;;;6176865;23;20325;-86
2023/07/14 09:07:54;;;;;;;4.82;2.38;;;21.10;99.90;;;;;;6178666;23;20008;-87
2023/07/14 09:10:38;;;;;;;4.18;2.67;;;21.10;99.90;;;;;;6178796;23;20378;-86
2023/07/14 09:13:35;;;;;;;4.35;2.42;;;21.20;99.90;;;;;;6178688;23;20005;-86
2023/07/14 09:16:02;;;;;;;4.63;2.15;;;21.10;99.90;;;;;;6178045;23;19997;-86
2023/07/14 09:18:27;;;;;;;5.40;2.50;;;21.10;99.90;;;;;;6177862;23;20023;-86
2023/07/14 09:20:58;;;;;;;6.25;2.47;;;21.20;99.90;;;;;;6177823;23;20005;-83
2023/07/14 09:23:52;;;;;;;6.45;2.53;;;21.30;99.90;;;;;;6178297;23;20005;-87
2023/07/14 09:26:23;;;;;;;10.30;3.08;;;21.50;99.90;;;;;;6178990;23;20055;-87
2023/07/14 09:28:51;;;;;;;4.38;2.28;;;21.60;99.90;;;;;;6178642;23;20001;-85
2023/07/14 09:31:16;;;;;;;5.57;2.83;;;21.70;99.90;;;;;;6178832;23;20008;-87
2023/07/14 09:33:53;;;;;;;4.78;2.53;;;21.90;98.90;;;;;;6178097;23;20435;-86
2023/07/14 09:36:20;;;;;;;9.05;2.80;;;21.90;97.70;;;;;;6178032;23;20005;-87
2023/07/14 09:38:54;;;;;;;4.80;2.40;;;21.90;99.10;;;;;;6178283;23;20016;-87
2023/07/14 09:41:24;;;;;;;4.90;2.38;;;21.90;98.50;;;;;;6178776;23;19997;-85
2023/07/14 09:43:50;;;;;;;3.03;2.17;;;22.00;96.10;;;;;;6176954;23;20447;-86
2023/07/14 09:46:18;;;;;;;13.27;2.95;;;22.00;95.10;;;;;;6177713;23;19997;-86
2023/07/14 09:49:21;;;;;;;8.98;2.78;;;22.00;95.80;;;;;;6178095;23;20005;-86
2023/07/14 09:52:02;;;;;;;4.82;2.65;;;22.00;96.20;;;;;;6177948;23;20442;-87
2023/07/14 09:54:28;;;;;;;3.88;1.98;;;22.10;95.40;;;;;;6177963;23;20032;-86
2023/07/14 09:57:01;;;;;;;5.78;2.55;;;22.10;91.70;;;;;;6177999;23;20021;-87
2023/07/14 09:59:28;;;;;;;8.32;2.20;;;22.20;93.80;;;;;;6178122;23;20371;-87
2023/07/14 10:01:59;;;;;;;3.63;2.25;;;22.30;94.80;;;;;;6177731;23;19997;-84
2023/07/14 10:04:30;;;;;;;4.75;2.60;;;22.40;95.30;;;;;;6178166;23;20005;-87
2023/07/14 10:07:25;;;;;;;5.88;3.20;;;22.50;92.10;;;;;;6177625;23;20016;-86
2023/07/14 10:10:07;;;;;;;3.35;2.42;;;22.60;90.00;;;;;;6161415;23;20323;-86
2023/07/14 10:12:44;;;;;;;7.50;2.90;;;22.60;87.20;;;;;;6178591;23;20080;-87
2023/07/14 10:15:32;;;;;;;4.88;2.95;;;22.60;90.50;;;;;;6177155;23;20081;-84
2023/07/14 10:18:18;;;;;;;9.38;3.20;;;22.60;85.40;;;;;;6177069;23;20335;-86
2023/07/14 10:21:06;;;;;;;;;;;22.80;94.40;;;;;;6177608;23;20072;-86
2023/07/14 10:23:32;;;;;;;8.35;3.22;;;22.90;90.50;;;;;;6177656;23;20050;-86
2023/07/14 10:25:58;;;;;;;7.20;3.20;;;22.80;91.00;;;;;;6178101;23;20309;-86
2023/07/14 10:28:30;;;;;;;6.85;3.50;;;22.90;85.40;;;;;;6178299;23;20432;-85
2023/07/14 10:31:22;;;;;;;7.68;3.13;;;22.90;74.30;;;;;;6176370;23;20490;-85
2023/07/14 10:33:54;;;;;;;5.18;3.20;;;22.80;76.20;;;;;;6159174;23;20001;-83
2023/07/14 10:36:27;;;;;;;6.93;3.15;;;22.60;78.80;;;;;;6180215;23;20380;-87
2023/07/14 10:38:59;;;;;;;6.75;3.22;;;22.70;76.50;;;;;;6179873;23;20036;-85
2023/07/14 10:41:26;;;;;;;7.80;3.30;;;22.70;84.10;;;;;;6179327;23;20308;-86
2023/07/14 10:44:09;;;;;;;5.22;2.67;;;22.60;84.00;;;;;;6180240;23;20363;-85
2023/07/14 10:46:42;;;;;;;6.05;2.97;;;22.60;87.40;;;;;;6179309;23;20160;-86
2023/07/14 10:49:36;;;;;;;6.20;2.70;;;22.60;79.80;;;;;;6180304;23;20001;-86
2023/07/14 10:52:11;;;;;;;6.82;2.90;;;22.60;82.20;;;;;;6180080;23;20081;-87
2023/07/14 10:55:01;;;;;;;6.85;4.03;;;22.60;79.20;;;;;;6180611;23;20028;-86
2023/07/14 10:57:43;;;;;;;6.03;2.78;;;22.60;78.10;;;;;;6178924;23;20247;-83
2023/07/14 11:00:19;;;;;;;4.45;2.78;;;22.60;79.80;;;;;;6177080;23;20012;-85
2023/07/14 11:03:06;;;;;;;4.07;2.70;;;22.70;82.60;;;;;;6180391;23;20431;-86
2023/07/14 11:05:33;;;;;;;5.10;2.58;;;22.70;90.80;;;;;;6180492;23;20373;-85
2023/07/14 11:07:59;;;;;;;6.07;2.70;;;23.00;83.00;;;;;;6179681;23;20008;-86
2023/07/14 11:10:39;;;;;;;7.32;3.10;;;23.10;83.90;;;;;;6177387;23;20005;-86
2023/07/14 11:13:09;;;;;;;5.78;2.75;;;23.20;87.30;;;;;;6180080;23;20423;-86
2023/07/14 11:15:46;;;;;;;4.80;2.95;;;23.30;80.20;;;;;;6180031;23;20009;-87
2023/07/14 11:18:30;;;;;;;8.40;3.20;;;23.30;78.90;;;;;;6179702;23;20063;-86
2023/07/14 11:21:09;;;;;;;6.75;2.90;;;23.30;79.30;;;;;;6178249;23;20035;-86
2023/07/14 11:23:45;;;;;;;4.82;3.03;;;23.30;77.40;;;;;;6178265;23;20508;-87
2023/07/14 11:26:22;;;;;;;6.82;3.35;;;23.40;76.80;;;;;;6178553;23;20055;-86
2023/07/14 11:29:04;;;;;;;7.90;3.63;;;23.40;76.50;;;;;;6176779;23;20005;-83
2023/07/14 11:31:34;;;;;;;9.88;3.70;;;23.50;77.80;;;;;;6179625;23;20005;-85
2023/07/14 11:34:38;;;;;;;4.60;3.13;;;23.60;82.00;;;;;;6179143;23;20032;-83
2023/07/14 11:37:22;;;;;;;5.20;3.55;;;23.70;82.70;;;;;;6176393;23;20017;-86
2023/07/14 11:39:58;;;;;;;8.95;3.28;;;23.80;78.30;;;;;;6177577;23;19997;-86
2023/07/14 11:42:31;;;;;;;7.72;3.30;;;23.70;77.00;;;;;;6176923;23;20393;-85
2023/07/14 11:45:01;;;;;;;7.22;3.90;;;23.70;69.20;;;;;;6177604;23;20028;-86
2023/07/14 11:47:33;;;;;;;6.50;3.78;;;23.70;78.20;;;;;;6177897;23;19997;-85
2023/07/14 11:50:02;;;;;;;6.63;3.22;;;23.70;78.00;;;;;;6178647;23;20019;-84
2023/07/14 11:52:30;;;;;;;6.25;3.70;;;23.70;75.40;;;;;;6178846;23;20331;-89
2023/07/14 11:55:33;;;;;;;6.47;3.17;;;23.80;79.20;;;;;;6179295;23;20064;-86
2023/07/14 11:58:23;;;;;;;6.85;3.28;;;23.70;81.00;;;;;;6171158;23;20029;-86
2023/07/14 12:01:03;;;;;;;5.88;3.30;;;23.60;76.00;;;;;;6176483;23;20368;-85
2023/07/14 12:03:37;;;;;;;6.35;3.50;;;23.50;79.60;;;;;;6179085;23;19997;-86
2023/07/14 12:06:12;;;;;;;8.10;3.80;;;23.30;78.70;;;;;;6178084;23;20025;-86
2023/07/14 12:09:18;;;;;;;7.07;3.77;;;23.30;82.00;;;;;;6177983;23;20008;-85
2023/07/14 12:12:18;;;;;;;10.63;3.75;;;23.20;80.90;;;;;;6153442;23;20005;-87
2023/07/14 12:14:46;;;;;;;6.43;4.00;;;23.30;80.20;;;;;;6177113;23;20008;-86
2023/07/14 12:17:37;;;;;;;7.45;3.22;;;23.40;79.70;;;;;;6179279;23;20013;-84
2023/07/14 12:20:23;;;;;;;7.50;3.70;;;23.40;80.90;;;;;;6178388;23;20037;-85
2023/07/14 12:23:26;;;;;;;6.57;3.65;;;23.50;75.60;;;;;;6157727;23;20005;-84
2023/07/14 12:26:08;;;;;;;6.57;3.40;;;23.60;87.10;;;;;;6178286;23;20231;-84
2023/07/14 12:28:37;;;;;;;5.47;3.42;;;23.80;83.60;;;;;;6179130;23;20008;-85
2023/07/14 12:31:12;;;;;;;7.93;3.30;;;23.90;82.00;;;;;;6178028;23;20081;-86
2023/07/14 12:33:39;;;;;;;9.70;4.25;;;23.90;78.10;;;;;;6175881;23;20001;-83
2023/07/14 12:36:09;;;;;;;8.75;3.55;;;23.90;79.90;;;;;;6178077;23;20005;-85
2023/07/14 12:38:36;;;;;;;5.05;3.45;;;23.90;72.20;;;;;;6178459;23;20017;-85
2023/07/14 12:41:03;;;;;;;7.07;4.07;;;23.80;73.10;;;;;;6178178;23;20379;-85
2023/07/14 12:43:44;;;;;;;5.65;3.80;;;23.80;72.40;;;;;;6177167;23;20489;-85
2023/07/14 12:46:34;;;;;;;6.43;3.22;;;23.70;75.00;;;;;;6177713;23;20047;-86
2023/07/14 12:49:27;;;;;;;6.50;3.70;;;23.70;74.30;;;;;;6151567;23;20005;-84
2023/07/14 12:51:53;;;;;;;5.40;3.38;;;23.60;75.30;;;;;;6178534;23;20282;-86
2023/07/14 12:54:29;;;;;;;8.60;3.78;;;23.60;76.80;;;;;;6177773;23;20000;-86
2023/07/14 12:56:58;;;;;;;6.45;3.50;;;23.70;79.00;;;;;;6177773;23;20043;-85
2023/07/14 12:59:24;;;;;;;7.50;3.70;;;23.70;78.20;;;;;;6177152;23;20087;-84
2023/07/14 13:01:50;;;;;;;5.40;3.42;;;23.70;73.50;;;;;;6176959;23;20036;-85
2023/07/14 13:04:19;;;;;;;9.75;4.35;;;23.70;73.90;;;;;;6178207;23;20335;-86
2023/07/14 13:06:46;;;;;;;5.07;3.50;;;23.70;71.40;;;;;;6177047;23;20021;-85
2023/07/14 13:09:28;;;;;;;5.60;3.75;;;23.70;76.00;;;;;;6176731;23;20008;-85